createdAt,value
2019-02-10T00:01:30.201Z,13.00
2019-02-10T00:03:57.752Z,12.13
2019-02-10T00:06:25.330Z,13.20
2019-02-10T00:08:52.920Z,8.87
2019-02-10T00:11:20.329Z,11.93
2019-02-10T00:13:49.320Z,14.63
2019-02-10T00:16:20.809Z,10.50
2019-02-10T00:18:48.492Z,13.20
2019-02-10T00:21:15.944Z,17.17
2019-02-10T00:23:43.348Z,16.20
2019-02-10T00:26:10.916Z,22.20
2019-02-10T00:28:38.367Z,11.30
2019-02-10T00:31:05.854Z,12.37
2019-02-10T00:33:33.255Z,11.93
2019-02-10T00:36:00.770Z,14.30
2019-02-10T00:38:28.261Z,12.30
2019-02-10T00:40:55.663Z,9.10
2019-02-10T00:43:23.054Z,10.17
2019-02-10T00:45:50.477Z,10.43
2019-02-10T00:48:17.894Z,11.73
2019-02-10T00:50:45.376Z,14.10
2019-02-10T00:53:12.851Z,9.60
2019-02-10T00:55:40.232Z,7.53
2019-02-10T00:58:07.778Z,19.37
2019-02-10T01:00:35.226Z,11.73
2019-02-10T01:03:02.672Z,9.30
2019-02-10T01:05:30.080Z,11.77
2019-02-10T01:07:57.784Z,9.40
2019-02-10T01:10:25.927Z,12.13
2019-02-10T01:12:53.574Z,22.47
2019-02-10T01:15:20.970Z,8.80
2019-02-10T01:17:48.404Z,13.83
2019-02-10T01:20:15.828Z,10.40
2019-02-10T01:22:43.233Z,14.10
2019-02-10T01:25:10.655Z,11.37
2019-02-10T01:27:38.107Z,9.27
2019-02-10T01:30:07.538Z,9.90
2019-02-10T01:32:35.039Z,11.80
2019-02-10T01:35:02.445Z,9.77
2019-02-10T01:37:29.948Z,8.97
2019-02-10T01:39:57.424Z,13.03
2019-02-10T01:42:24.833Z,13.03
2019-02-10T01:44:52.245Z,7.93
2019-02-10T01:47:19.656Z,11.73
2019-02-10T01:49:47.160Z,9.00
2019-02-10T01:52:14.622Z,11.70
2019-02-10T01:54:42.028Z,11.80
2019-02-10T01:57:09.533Z,7.53
2019-02-10T01:59:37.041Z,11.63
2019-02-10T02:02:04.467Z,7.57
2019-02-10T02:04:31.887Z,17.40
2019-02-10T02:06:59.301Z,10.83
2019-02-10T02:09:26.980Z,16.67
2019-02-10T02:11:54.417Z,14.93
2019-02-10T02:14:21.946Z,16.43
2019-02-10T02:16:49.407Z,8.50
2019-02-10T02:19:16.827Z,7.03
2019-02-10T02:21:44.334Z,9.80
2019-02-10T02:24:11.763Z,9.00
2019-02-10T02:26:39.172Z,12.97
2019-02-10T02:29:06.696Z,11.83
2019-02-10T02:31:34.149Z,8.57
2019-02-10T02:34:01.568Z,13.20
2019-02-10T02:36:29.017Z,9.37
2019-02-10T02:38:56.469Z,12.40
2019-02-10T02:41:24.040Z,9.23
2019-02-10T02:43:51.483Z,9.13
2019-02-10T02:46:18.986Z,8.67
2019-02-10T02:48:47.455Z,12.37
2019-02-10T02:51:14.976Z,10.87
2019-02-10T02:53:42.358Z,12.47
2019-02-10T02:56:09.775Z,11.37
2019-02-10T02:58:37.255Z,12.67
2019-02-10T03:01:04.678Z,13.13
2019-02-10T03:03:32.099Z,13.90
2019-02-10T03:05:59.503Z,10.70
2019-02-10T03:08:27.027Z,13.43
2019-02-10T03:10:54.470Z,8.40
2019-02-10T03:13:22.027Z,13.47
2019-02-10T03:15:49.564Z,10.30
2019-02-10T03:18:17.021Z,10.53
2019-02-10T03:20:44.420Z,9.33
2019-02-10T03:23:12.073Z,11.60
2019-02-10T03:25:39.558Z,15.80
2019-02-10T03:28:07.018Z,11.50
2019-02-10T03:30:34.533Z,16.10
2019-02-10T03:33:01.981Z,12.93
2019-02-10T03:35:29.439Z,11.47
2019-02-10T03:37:56.943Z,10.93
2019-02-10T03:40:24.688Z,12.03
2019-02-10T03:42:52.265Z,10.40
2019-02-10T03:45:19.866Z,14.40
2019-02-10T03:47:47.619Z,8.33
2019-02-10T03:50:15.204Z,9.50
2019-02-10T03:52:42.716Z,10.80
2019-02-10T03:55:10.366Z,8.57
2019-02-10T03:57:37.782Z,7.77
2019-02-10T04:00:05.294Z,9.53
2019-02-10T04:02:32.834Z,22.67
2019-02-10T04:05:00.357Z,14.57
2019-02-10T04:07:35.870Z,9.77
2019-02-10T04:09:58.359Z,11.23
2019-02-10T04:12:25.795Z,10.93
2019-02-10T04:14:53.231Z,7.27
2019-02-10T04:17:20.664Z,8.53
2019-02-10T04:19:48.116Z,11.83
2019-02-10T04:22:15.555Z,20.57
2019-02-10T04:24:43.022Z,26.17
2019-02-10T04:27:10.487Z,15.17
2019-02-10T04:29:37.986Z,13.13
2019-02-10T04:32:05.554Z,14.30
2019-02-10T04:34:32.988Z,10.93
2019-02-10T04:37:00.369Z,10.50
2019-02-10T04:39:27.931Z,7.07
2019-02-10T04:41:55.341Z,10.57
2019-02-10T04:44:22.796Z,9.80
2019-02-10T04:46:50.239Z,12.07
2019-02-10T04:49:17.805Z,9.60
2019-02-10T04:51:45.248Z,9.97
2019-02-10T04:54:12.684Z,12.57
2019-02-10T04:56:40.197Z,9.57
2019-02-10T04:59:07.892Z,8.97
2019-02-10T05:01:35.415Z,11.73
2019-02-10T05:04:02.969Z,11.10
2019-02-10T05:06:30.546Z,11.27
2019-02-10T05:08:58.117Z,15.10
2019-02-10T05:11:25.728Z,7.43
2019-02-10T05:13:53.299Z,9.47
2019-02-10T05:16:20.727Z,7.80
2019-02-10T05:18:48.329Z,7.63
2019-02-10T05:21:15.820Z,10.27
2019-02-10T05:23:43.213Z,6.40
2019-02-10T05:26:11.052Z,8.23
2019-02-10T05:28:38.749Z,13.53
2019-02-10T05:31:06.327Z,10.73
2019-02-10T05:33:33.784Z,8.43
2019-02-10T05:36:01.370Z,7.07
2019-02-10T05:38:28.889Z,12.53
2019-02-10T05:40:56.303Z,10.60
2019-02-10T05:43:23.730Z,7.97
2019-02-10T05:45:51.288Z,10.50
2019-02-10T05:48:18.873Z,8.33
2019-02-10T05:50:46.307Z,10.63
2019-02-10T05:53:13.841Z,11.20
2019-02-10T05:55:41.500Z,9.40
2019-02-10T05:58:09.169Z,12.13
2019-02-10T06:00:36.718Z,11.63
2019-02-10T06:03:04.236Z,9.40
2019-02-10T06:05:31.978Z,10.67
2019-02-10T06:07:59.653Z,8.57
2019-02-10T06:10:27.526Z,11.10
2019-02-10T06:12:55.338Z,9.87
2019-02-10T06:15:23.016Z,11.13
2019-02-10T06:17:50.755Z,11.70
2019-02-10T06:20:18.433Z,12.00
2019-02-10T06:22:46.255Z,10.83
2019-02-10T06:25:14.502Z,10.37
2019-02-10T06:27:42.349Z,15.37
2019-02-10T06:30:10.564Z,10.53
2019-02-10T06:32:38.274Z,15.77
2019-02-10T06:35:06.561Z,14.53
2019-02-10T06:37:34.271Z,12.00
2019-02-10T06:40:01.909Z,19.13
2019-02-10T06:42:30.284Z,23.27
2019-02-10T06:44:58.113Z,22.30
2019-02-10T06:47:26.140Z,47.10
2019-02-10T06:49:53.881Z,25.47
2019-02-10T06:52:21.526Z,14.80
2019-02-10T06:54:53.122Z,23.47
2019-02-10T06:57:22.690Z,20.83
2019-02-10T07:00:15.733Z,31.30
2019-02-10T07:03:27.469Z,41.73
2019-02-10T07:05:55.758Z,30.23
2019-02-10T07:08:30.367Z,17.30
2019-02-10T07:10:53.235Z,24.67
2019-02-10T07:13:35.608Z,13.57
2019-02-10T07:16:53.073Z,24.27
2019-02-10T07:20:14.251Z,17.67
2019-02-10T07:23:21.375Z,16.70
2019-02-10T07:25:51.280Z,20.27
2019-02-10T07:29:06.941Z,18.97
2019-02-10T07:31:58.564Z,15.10
2019-02-10T07:35:02.633Z,17.30
2019-02-10T07:37:52.471Z,22.00
2019-02-10T07:41:08.474Z,19.50
2019-02-10T07:44:01.905Z,12.03
2019-02-10T07:47:09.576Z,13.97
2019-02-10T07:50:01.113Z,20.23
2019-02-10T07:53:10.715Z,17.03
2019-02-10T07:56:17.414Z,17.10
2019-02-10T07:59:25.789Z,16.30
2019-02-10T08:02:31.887Z,17.93
2019-02-10T08:05:28.592Z,15.30
2019-02-10T08:08:46.657Z,16.47
2019-02-10T08:12:06.961Z,13.50
2019-02-10T08:14:43.559Z,25.70
2019-02-10T08:17:49.011Z,17.97
2019-02-10T08:20:42.903Z,16.57
2019-02-10T08:23:27.278Z,20.73
2019-02-10T08:26:24.797Z,20.77
2019-02-10T08:29:24.083Z,23.23
2019-02-10T08:32:14.943Z,20.50
2019-02-10T08:34:50.526Z,24.23
2019-02-10T08:37:53.803Z,21.23
2019-02-10T08:41:10.449Z,15.57
2019-02-10T08:44:17.227Z,20.27
2019-02-10T08:47:35.698Z,21.00
2019-02-10T08:50:42.003Z,17.00
2019-02-10T08:53:31.592Z,22.50
2019-02-10T08:55:59.436Z,28.73
2019-02-10T08:58:28.326Z,22.07
2019-02-10T09:00:56.939Z,29.93
2019-02-10T09:03:25.682Z,35.60
2019-02-10T09:05:54.940Z,36.27
2019-02-10T09:08:29.001Z,28.57
2019-02-10T09:11:02.060Z,22.37
2019-02-10T09:13:35.303Z,25.60
2019-02-10T09:16:08.273Z,21.63
2019-02-10T09:18:39.913Z,37.40
2019-02-10T09:21:09.683Z,22.93
2019-02-10T09:23:38.847Z,21.97
2019-02-10T09:26:09.341Z,22.30
2019-02-10T09:28:38.869Z,29.83
2019-02-10T09:31:08.588Z,24.43
2019-02-10T09:33:37.774Z,28.60
2019-02-10T09:36:06.052Z,21.70
2019-02-10T09:38:37.430Z,51.27
2019-02-10T09:41:08.942Z,51.40
2019-02-10T09:43:40.765Z,42.23
2019-02-10T09:46:12.049Z,23.00
2019-02-10T09:48:42.970Z,21.80
2019-02-10T09:51:16.093Z,26.70
2019-02-10T09:53:48.483Z,65.10
2019-02-10T09:56:19.511Z,49.27
2019-02-10T09:58:52.035Z,44.37
2019-02-10T10:01:22.760Z,78.27
2019-02-10T10:04:00.233Z,116.87
2019-02-10T10:06:45.864Z,69.77
2019-02-10T10:09:32.065Z,143.93
2019-02-10T10:12:07.194Z,29.67
2019-02-10T10:14:38.478Z,63.47
2019-02-10T10:17:13.473Z,27.10
2019-02-10T10:19:50.716Z,13.83
2019-02-10T10:22:26.035Z,17.67
2019-02-10T10:24:55.230Z,25.27
2019-02-10T10:27:23.026Z,26.73
2019-02-10T10:29:51.208Z,37.70
2019-02-10T10:32:18.976Z,44.73
2019-02-10T10:34:46.694Z,15.70
2019-02-10T10:37:14.420Z,18.63
2019-02-10T10:39:43.281Z,21.93
2019-02-10T10:42:11.031Z,12.10
2019-02-10T10:44:38.921Z,15.87
2019-02-10T10:47:06.680Z,11.33
2019-02-10T10:49:36.648Z,14.53
2019-02-10T10:52:04.519Z,13.97
2019-02-10T10:54:32.693Z,12.50
2019-02-10T10:57:00.420Z,10.43
2019-02-10T10:59:28.583Z,9.60
2019-02-10T11:01:56.390Z,12.53
2019-02-10T11:04:24.129Z,9.47
2019-02-10T11:06:51.853Z,8.33
2019-02-10T11:09:19.756Z,14.67
2019-02-10T11:11:47.689Z,10.80
2019-02-10T11:14:15.588Z,10.37
2019-02-10T11:16:43.248Z,13.70
2019-02-10T11:19:12.435Z,12.43
2019-02-10T11:21:54.315Z,8.97
2019-02-10T11:24:29.013Z,10.80
2019-02-10T11:26:57.645Z,9.93
2019-02-10T11:29:25.465Z,12.13
2019-02-10T11:31:53.272Z,9.43
2019-02-10T11:34:21.729Z,8.70
2019-02-10T11:36:49.524Z,8.93
2019-02-10T11:39:17.252Z,8.67
2019-02-10T11:41:48.954Z,10.03
2019-02-10T11:44:16.718Z,7.03
2019-02-10T11:46:44.286Z,13.03
2019-02-10T11:49:12.187Z,10.27
2019-02-10T11:51:40.000Z,8.63
2019-02-10T11:54:07.732Z,9.03
2019-02-10T11:56:35.325Z,13.93
2019-02-10T11:59:03.597Z,9.83
2019-02-10T12:01:32.448Z,8.77
2019-02-10T12:04:00.467Z,11.53
2019-02-10T12:06:28.157Z,11.13
2019-02-10T12:08:56.211Z,14.47
2019-02-10T12:11:24.016Z,12.40
2019-02-10T12:13:51.766Z,10.97
2019-02-10T12:16:19.752Z,12.40
2019-02-10T12:18:47.386Z,7.57
2019-02-10T12:21:15.443Z,12.00
2019-02-10T12:23:43.431Z,14.07
2019-02-10T12:26:11.358Z,7.97
2019-02-10T12:28:39.308Z,12.90
2019-02-10T12:31:09.648Z,12.07
2019-02-10T12:33:37.308Z,18.17
2019-02-10T12:36:05.015Z,11.80
2019-02-10T12:38:32.517Z,38.10
2019-02-10T12:41:00.515Z,14.73
2019-02-10T12:43:28.242Z,7.10
2019-02-10T12:45:56.154Z,11.53
2019-02-10T12:48:23.767Z,9.07
2019-02-10T12:50:51.688Z,12.70
2019-02-10T12:53:19.433Z,7.10
2019-02-10T12:55:47.204Z,7.57
2019-02-10T12:58:14.789Z,10.57
2019-02-10T13:00:43.650Z,7.23
2019-02-10T13:03:11.447Z,6.27
2019-02-10T13:05:39.045Z,5.97
2019-02-10T13:08:06.935Z,5.90
2019-02-10T13:10:34.782Z,7.07
2019-02-10T13:13:02.686Z,6.40
2019-02-10T13:15:30.467Z,7.43
2019-02-10T13:17:58.063Z,8.07
2019-02-10T13:20:30.771Z,4.90
2019-02-10T13:22:58.407Z,6.17
2019-02-10T13:25:28.070Z,6.57
2019-02-10T13:27:55.789Z,9.57
2019-02-10T13:30:23.976Z,9.17
2019-02-10T13:32:52.010Z,5.23
2019-02-10T13:35:19.813Z,7.10
2019-02-10T13:37:47.590Z,6.60
2019-02-10T13:40:22.713Z,6.53
2019-02-10T13:42:50.748Z,7.27
2019-02-10T13:45:19.013Z,5.80
2019-02-10T13:47:46.818Z,4.93
2019-02-10T13:50:16.992Z,7.77
2019-02-10T13:52:48.487Z,7.17
2019-02-10T13:55:16.838Z,7.63
2019-02-10T13:57:44.471Z,7.50
2019-02-10T14:00:14.336Z,4.77
2019-02-10T14:02:41.924Z,8.00
2019-02-10T14:05:09.868Z,5.93
2019-02-10T14:07:37.501Z,9.17
2019-02-10T14:10:05.417Z,6.03
2019-02-10T14:12:33.273Z,6.87
2019-02-10T14:15:00.866Z,6.17
2019-02-10T14:17:28.638Z,6.27
2019-02-10T14:19:57.987Z,7.73
2019-02-10T14:22:25.629Z,4.83
2019-02-10T14:24:53.282Z,6.47
2019-02-10T14:27:20.947Z,5.30
2019-02-10T14:29:48.563Z,6.00
2019-02-10T14:32:19.252Z,4.20
2019-02-10T14:34:46.806Z,6.60
2019-02-10T14:37:14.496Z,7.33
2019-02-10T14:39:42.103Z,8.37
2019-02-10T14:42:10.613Z,6.40
2019-02-10T14:44:38.908Z,7.07
2019-02-10T14:47:06.646Z,9.23
2019-02-10T14:49:34.408Z,14.33
2019-02-10T14:52:02.391Z,9.07
2019-02-10T14:54:30.051Z,10.40
2019-02-10T14:56:57.779Z,12.93
2019-02-10T14:59:25.533Z,15.67
2019-02-10T15:01:53.291Z,8.60
2019-02-10T15:04:20.904Z,11.30
2019-02-10T15:06:48.416Z,6.67
2019-02-10T15:09:15.923Z,6.93
2019-02-10T15:11:43.750Z,7.40
2019-02-10T15:14:11.288Z,17.70
2019-02-10T15:16:38.966Z,8.47
2019-02-10T15:19:06.768Z,7.10
2019-02-10T15:21:34.546Z,6.83
2019-02-10T15:24:02.264Z,5.33
2019-02-10T15:26:30.324Z,6.37
2019-02-10T15:28:58.053Z,8.13
2019-02-10T15:31:25.726Z,7.50
2019-02-10T15:33:53.235Z,8.93
2019-02-10T15:36:21.018Z,7.27
2019-02-10T15:38:48.604Z,9.30
2019-02-10T15:41:16.080Z,8.07
2019-02-10T15:43:44.033Z,11.37
2019-02-10T15:46:11.582Z,7.07
2019-02-10T15:48:39.073Z,6.40
2019-02-10T15:51:06.653Z,5.70
2019-02-10T15:53:34.379Z,11.03
2019-02-10T15:56:05.516Z,7.17
2019-02-10T15:58:41.214Z,8.93
2019-02-10T16:01:09.963Z,7.90
2019-02-10T16:03:37.656Z,11.00
2019-02-10T16:06:05.272Z,8.87
2019-02-10T16:08:32.887Z,8.20
2019-02-10T16:11:00.648Z,6.60
2019-02-10T16:13:28.554Z,10.33
2019-02-10T16:15:56.390Z,11.97
2019-02-10T16:18:24.080Z,7.57
2019-02-10T16:20:51.802Z,8.03
2019-02-10T16:23:19.738Z,6.03
2019-02-10T16:25:47.432Z,9.47
2019-02-10T16:28:15.118Z,7.43
2019-02-10T16:30:42.766Z,7.47
2019-02-10T16:33:10.642Z,8.37
2019-02-10T16:35:38.472Z,8.23
2019-02-10T16:38:06.478Z,10.00
2019-02-10T16:40:34.247Z,7.73
2019-02-10T16:43:03.144Z,8.90
2019-02-10T16:45:31.115Z,6.37
2019-02-10T16:47:58.866Z,9.13
2019-02-10T16:50:26.991Z,6.13
2019-02-10T16:52:54.771Z,7.63
2019-02-10T16:55:22.530Z,6.67
2019-02-10T16:57:50.750Z,7.03
2019-02-10T17:00:18.488Z,9.93
2019-02-10T17:02:46.324Z,6.33
2019-02-10T17:05:14.314Z,8.13
2019-02-10T17:07:41.999Z,6.97
2019-02-10T17:10:11.023Z,8.43
2019-02-10T17:12:38.771Z,11.33
2019-02-10T17:15:10.394Z,11.77
2019-02-10T17:17:38.063Z,14.03
2019-02-10T17:20:06.711Z,10.77
2019-02-10T17:22:34.512Z,9.07
2019-02-10T17:25:02.194Z,9.37
2019-02-10T17:27:29.944Z,8.30
2019-02-10T17:29:57.627Z,7.83
2019-02-10T17:32:25.335Z,6.73
2019-02-10T17:34:53.572Z,7.40
2019-02-10T17:37:21.217Z,6.67
2019-02-10T17:39:48.972Z,7.70
2019-02-10T17:42:16.694Z,6.67
2019-02-10T17:44:44.405Z,7.87
2019-02-10T17:47:12.115Z,10.97
2019-02-10T17:49:40.130Z,8.30
2019-02-10T17:52:08.247Z,9.33
2019-02-10T17:54:36.213Z,7.03
2019-02-10T17:57:04.189Z,7.07
2019-02-10T17:59:32.156Z,9.10
2019-02-10T18:01:59.827Z,8.00
2019-02-10T18:04:27.777Z,9.17
2019-02-10T18:06:55.424Z,6.30
2019-02-10T18:09:23.133Z,6.57
2019-02-10T18:11:50.790Z,7.57
2019-02-10T18:14:38.117Z,10.03
2019-02-10T18:17:27.172Z,9.73
2019-02-10T18:20:17.557Z,8.27
2019-02-10T18:23:03.962Z,9.07
2019-02-10T18:25:51.321Z,8.33
2019-02-10T18:28:38.623Z,8.23
2019-02-10T18:31:24.601Z,12.10
2019-02-10T18:34:01.544Z,8.87
2019-02-10T18:36:42.118Z,10.20
2019-02-10T18:39:27.438Z,10.67
2019-02-10T18:42:08.039Z,9.47
2019-02-10T18:44:45.351Z,9.73
2019-02-10T18:47:32.908Z,12.13
2019-02-10T18:50:13.482Z,8.17
2019-02-10T18:53:03.585Z,7.60
2019-02-10T18:55:50.879Z,7.97
2019-02-10T18:58:27.986Z,11.73
2019-02-10T19:01:27.303Z,7.40
2019-02-10T19:04:06.491Z,7.57
2019-02-10T19:06:43.225Z,7.73
2019-02-10T19:09:36.532Z,7.77
2019-02-10T19:12:18.638Z,9.40
2019-02-10T19:15:11.987Z,9.57
2019-02-10T19:18:11.323Z,10.17
2019-02-10T19:21:01.503Z,9.00
2019-02-10T19:23:54.890Z,11.43
2019-02-10T19:26:42.120Z,11.67
2019-02-10T19:29:38.412Z,9.57
2019-02-10T19:32:15.259Z,8.03
2019-02-10T19:35:06.465Z,10.40
2019-02-10T19:37:48.852Z,11.77
2019-02-10T19:40:51.025Z,9.07
2019-02-10T19:43:36.519Z,11.03
2019-02-10T19:46:22.492Z,8.30
2019-02-10T19:49:07.872Z,8.30
2019-02-10T19:51:53.521Z,9.80
2019-02-10T19:54:39.524Z,8.07
2019-02-10T19:57:24.163Z,8.33
2019-02-10T20:00:11.704Z,8.80
2019-02-10T20:02:53.159Z,8.40
2019-02-10T20:05:40.422Z,7.90
2019-02-10T20:08:33.433Z,7.03
2019-02-10T20:11:15.180Z,8.67
2019-02-10T20:13:51.791Z,9.80
2019-02-10T20:16:29.606Z,7.10
2019-02-10T20:19:12.546Z,7.77
2019-02-10T20:21:54.534Z,8.20
2019-02-10T20:24:30.908Z,8.70
2019-02-10T20:27:27.568Z,10.60
2019-02-10T20:30:29.978Z,8.13
2019-02-10T20:33:29.387Z,10.00
2019-02-10T20:36:15.521Z,10.40
2019-02-10T20:39:08.416Z,9.63
2019-02-10T20:41:54.283Z,8.37
2019-02-10T20:44:44.550Z,9.70
2019-02-10T20:47:30.760Z,9.77
2019-02-10T20:50:21.025Z,8.73
2019-02-10T20:53:08.297Z,9.87
2019-02-10T20:55:58.294Z,9.17
2019-02-10T20:59:03.683Z,13.57
2019-02-10T21:02:03.096Z,9.40
2019-02-10T21:04:48.816Z,13.10
2019-02-10T21:07:26.235Z,8.50
2019-02-10T21:10:08.194Z,11.10
2019-02-10T21:12:53.751Z,9.00
2019-02-10T21:15:50.334Z,12.73
2019-02-10T21:18:26.918Z,8.00
2019-02-10T21:21:25.774Z,7.57
2019-02-10T21:24:03.964Z,7.03
2019-02-10T21:26:38.854Z,12.50
2019-02-10T21:29:24.342Z,10.30
2019-02-10T21:32:07.585Z,15.10
2019-02-10T21:34:46.450Z,17.23
2019-02-10T21:37:21.706Z,13.53
2019-02-10T21:40:05.992Z,15.80
2019-02-10T21:42:49.509Z,11.67
2019-02-10T21:45:28.905Z,10.97
2019-02-10T21:48:06.942Z,13.57
2019-02-10T21:50:34.569Z,10.63
2019-02-10T21:53:02.148Z,11.37
2019-02-10T21:55:29.722Z,10.03
2019-02-10T21:57:57.296Z,10.53
2019-02-10T22:00:25.032Z,12.20
2019-02-10T22:02:52.608Z,8.90
2019-02-10T22:05:20.082Z,13.17
2019-02-10T22:07:47.672Z,9.83
2019-02-10T22:10:15.310Z,7.87
2019-02-10T22:12:43.989Z,10.30
2019-02-10T22:15:11.568Z,12.90
2019-02-10T22:17:39.182Z,10.20
2019-02-10T22:20:08.817Z,8.77
2019-02-10T22:22:36.277Z,12.97
2019-02-10T22:25:04.013Z,10.10
2019-02-10T22:27:31.480Z,12.73
2019-02-10T22:29:58.938Z,11.00
2019-02-10T22:32:26.406Z,10.07
2019-02-10T22:34:53.906Z,12.37
2019-02-10T22:37:21.358Z,11.97
2019-02-10T22:39:48.826Z,14.53
2019-02-10T22:42:16.266Z,13.23
2019-02-10T22:44:43.826Z,14.23
2019-02-10T22:47:11.250Z,13.53
2019-02-10T22:49:38.821Z,17.97
2019-02-10T22:52:06.358Z,7.67
2019-02-10T22:54:33.806Z,9.20
2019-02-10T22:57:01.277Z,12.97
2019-02-10T22:59:28.747Z,10.47
2019-02-10T23:01:56.185Z,11.33
2019-02-10T23:04:23.756Z,11.03
2019-02-10T23:06:51.270Z,14.00
2019-02-10T23:09:22.490Z,11.73
2019-02-10T23:11:50.053Z,9.10
2019-02-10T23:14:17.505Z,12.43
2019-02-10T23:16:44.946Z,11.57
2019-02-10T23:19:12.428Z,10.87
2019-02-10T23:21:39.880Z,13.53
2019-02-10T23:24:07.309Z,12.53
2019-02-10T23:26:34.832Z,14.23
2019-02-10T23:29:02.326Z,9.00
2019-02-10T23:31:29.838Z,11.47
2019-02-10T23:33:57.390Z,10.17
2019-02-10T23:36:24.991Z,12.07
2019-02-10T23:38:52.438Z,11.53
2019-02-10T23:41:19.945Z,9.97
2019-02-10T23:43:47.581Z,9.77
2019-02-10T23:46:15.195Z,10.50
2019-02-10T23:48:42.654Z,12.10
2019-02-10T23:51:10.182Z,8.77
2019-02-10T23:53:37.659Z,9.03
2019-02-10T23:56:05.104Z,16.93
2019-02-10T23:58:32.564Z,11.50
